| time (UTC) | temp C | wind direction | speed KPH | gust KPH | rain 1hr cm | rain 24hr cm | rain mn cm | humidity % | barometer mb |
| 20260906230004 | 14 | 304 | 9.7 | 16.1 | 0.00 | 0.58 | 0.25 | 92 | 1017.9 |
| 20260906224503 | 14 | 314 | 9.7 | 16.1 | 0.00 | 0.58 | 0.25 | 92 | 1018.2 |
| 20260906223003 | 14 | 296 | 9.7 | 14.5 | 0.00 | 0.58 | 0.25 | 91 | 1018.1 |
| 20260906221507 | 14 | 288 | 8.0 | 14.5 | 0.00 | 0.58 | 0.25 | 91 | 1018.0 |
| 20260906220001 | 14 | 295 | 8.0 | 12.9 | 0.00 | 0.58 | 0.25 | 91 | 1018.0 |
| 20260906214502 | 14 | 312 | 8.0 | 14.5 | 0.00 | 0.58 | 0.25 | 90 | 1017.9 |
| 20260906213059 | 14 | 320 | 8.0 | 12.9 | 0.00 | 0.58 | 0.25 | 90 | 1017.9 |
| 20260906211559 | 13 | 297 | 11.3 | 16.1 | 0.00 | 0.58 | 0.25 | 91 | 1017.9 |
| 20260906210106 | 13 | 293 | 11.3 | 17.7 | 0.00 | 0.58 | 0.25 | 92 | 1018.0 |
| 20260906204601 | 13 | 326 | 8.0 | 16.1 | 0.00 | 0.58 | 0.25 | 91 | 1018.1 |
| 20260906203055 | 13 | 299 | 11.3 | 17.7 | 0.00 | 0.58 | 0.25 | 91 | 1018.2 |
| 20260906201555 | 13 | 336 | 8.0 | 16.1 | 0.00 | 0.58 | 0.25 | 91 | 1018.2 |
| 20260906200054 | 13 | 310 | 11.3 | 17.7 | 0.00 | 0.58 | 0.25 | 90 | 1018.3 |
| 20260906194604 | 13 | 298 | 9.7 | 17.7 | 0.00 | 0.58 | 0.25 | 89 | 1018.4 |
| 20260906193052 | 14 | 306 | 11.3 | 20.9 | 0.00 | 0.58 | 0.25 | 88 | 1018.3 |
| 20260906191550 | 14 | 338 | 12.9 | 22.5 | 0.00 | 0.58 | 0.25 | 89 | 1018.2 |
| 20260906190050 | 13 | 321 | 9.7 | 17.7 | 0.00 | 0.58 | 0.25 | 88 | 1018.3 |
| 20260906184547 | 13 | 345 | 11.3 | 17.7 | 0.00 | 0.58 | 0.25 | 89 | 1018.5 |
| 20260906183059 | 13 | 311 | 8.0 | 14.5 | 0.00 | 0.58 | 0.25 | 90 | 1018.7 |
| 20260906181546 | 13 | 328 | 11.3 | 17.7 | 0.00 | 0.58 | 0.25 | 91 | 1018.9 |
| 20260906174537 | 12 | 319 | 8.0 | 16.1 | 0.00 | 0.58 | 0.25 | 93 | 1019.7 |
| 20260906173038 | 12 | 295 | 11.3 | 16.1 | 0.00 | 0.58 | 0.25 | 95 | 1020.1 |
| 20260906171539 | 12 | 300 | 11.3 | 16.1 | 0.03 | 0.58 | 0.25 | 95 | 1020.3 |
| 20260906170035 | 12 | 300 | 11.3 | 17.7 | 0.03 | 0.58 | 0.25 | 96 | 1020.4 |
| 20260906164534 | 11 | 302 | 11.3 | 17.7 | 0.05 | 0.58 | 0.25 | 96 | 1019.9 |
| 20260906163033 | 11 | 302 | 9.7 | 16.1 | 0.05 | 0.58 | 0.25 | 96 | 1020.1 |
| 20260906161545 | 11 | 302 | 11.3 | 19.3 | 0.23 | 0.56 | 0.23 | 97 | 1020.1 |
| 20260906160035 | 11 | 314 | 11.3 | 24.1 | 0.23 | 0.56 | 0.23 | 96 | 1020.3 |
| 20260906154531 | 11 | 300 | 9.7 | 22.5 | 0.20 | 0.53 | 0.20 | 96 | 1020.5 |
| 20260906153041 | 11 | 303 | 19.3 | 29.0 | 0.18 | 0.51 | 0.18 | 96 | 1020.3 |
| 20260906151529 | 11 | 257 | 9.7 | 27.4 | 0.00 | 0.33 | 0.00 | 94 | 1021.0 |
| 20260906150032 | 11 | 288 | 11.3 | 25.7 | 0.00 | 0.33 | 0.00 | 95 | 1020.5 |
| 20260906144530 | 12 | 285 | 9.7 | 19.3 | 0.00 | 0.51 | 0.00 | 96 | 1020.7 |
| 20260906143027 | 12 | 290 | 1.6 | 11.3 | 0.00 | 0.51 | 0.00 | 97 | 1020.2 |
| 20260906141525 | 12 | 354 | 6.4 | 9.7 | 0.00 | 0.51 | 0.00 | 96 | 1019.9 |
| 20260906140024 | 12 | 298 | 6.4 | 12.9 | 0.00 | 0.51 | 0.00 | 96 | 1020.3 |
| 20260906134524 | 11 | 302 | 9.7 | 12.9 | 0.00 | 0.53 | 0.00 | 96 | 1020.1 |
| 20260906133031 | 11 | 304 | 11.3 | 14.5 | 0.00 | 0.53 | 0.00 | 97 | 1020.2 |
| 20260906131523 | 11 | 309 | 8.0 | 16.1 | 0.00 | 0.53 | 0.00 | 97 | 1020.4 |
| 20260906130025 | 11 | 302 | 11.3 | 22.5 | 0.00 | 0.53 | 0.00 | 97 | 1020.4 |
| 20260906124523 | 12 | 300 | 14.5 | 19.3 | 0.00 | 0.53 | 0.00 | 96 | 1020.5 |
| 20260906123025 | 12 | 355 | 6.4 | 11.3 | 0.00 | 0.53 | 0.00 | 97 | 1020.5 |
| 20260906121532 | 12 | 297 | 4.8 | 9.7 | 0.00 | 0.53 | 0.00 | 97 | 1020.9 |
| 20260906120018 | 11 | 257 | 0.0 | 3.2 | 0.00 | 0.53 | 0.00 | 97 | 1020.8 |
| 20260906114528 | 11 | 319 | 1.6 | 9.7 | 0.00 | 0.53 | 0.00 | 98 | 1020.8 |
| 20260906113017 | 11 | 330 | 4.8 | 12.9 | 0.00 | 0.53 | 0.00 | 97 | 1020.5 |
| 20260906111516 | 11 | 330 | 9.7 | 16.1 | 0.00 | 0.53 | 0.00 | 97 | 1020.2 |
| 20260906110013 | 11 | 352 | 6.4 | 12.9 | 0.00 | 0.53 | 0.00 | 97 | 1020.5 |
| 20260906104512 | 11 | 330 | 6.4 | 11.3 | 0.00 | 0.53 | 0.00 | 97 | 1020.6 |
| 20260906103014 | 11 | 307 | 6.4 | 17.7 | 0.00 | 0.53 | 0.00 | 97 | 1020.7 |
| 20260906101511 | 11 | 304 | 9.7 | 17.7 | 0.00 | 0.53 | 0.00 | 97 | 1020.9 |
| 20260906100014 | 11 | 291 | 9.7 | 24.1 | 0.00 | 0.53 | 0.00 | 97 | 1020.9 |
| 20260906094507 | 11 | 18 | 16.1 | 25.7 | 0.00 | 0.53 | 0.00 | 97 | 1020.7 |
| 20260906093004 | 11 | 302 | 12.9 | 19.3 | 0.00 | 0.53 | 0.00 | 97 | 1021.4 |
| 20260906091505 | 11 | 319 | 9.7 | 19.3 | 0.00 | 0.53 | 0.00 | 97 | 1021.7 |
| 20260906090001 | 11 | 347 | 9.7 | 16.1 | 0.00 | 0.53 | 0.00 | 97 | 1021.6 |
| 20260906084601 | 11 | 336 | 9.7 | 17.7 | 0.00 | 0.53 | 0.00 | 97 | 1021.5 |
| 20260906083103 | 11 | 344 | 12.9 | 19.3 | 0.00 | 0.53 | 0.00 | 97 | 1021.5 |
| 20260906081556 | 11 | 300 | 14.5 | 20.9 | 0.00 | 0.53 | 0.00 | 97 | 1021.6 |
| 20260906080055 | 11 | 299 | 12.9 | 19.3 | 0.00 | 0.53 | 0.00 | 97 | 1021.7 |
| 20260906074553 | 11 | 321 | 12.9 | 20.9 | 0.00 | 0.53 | 0.00 | 96 | 1021.7 |
| 20260906073051 | 11 | 300 | 14.5 | 19.3 | 0.00 | 0.53 | 0.00 | 96 | 1022.2 |
| 20260906071549 | 11 | 295 | 8.0 | 16.1 | 0.00 | 0.53 | 0.00 | 95 | 1022.2 |
| 20260906070047 | 11 | 316 | 12.9 | 19.3 | 0.00 | 0.53 | 0.00 | 95 | 1022.3 |
| 20260906064546 | 11 | 296 | 12.9 | 19.3 | 0.00 | 0.53 | 0.00 | 95 | 1022.9 |
| 20260906063044 | 11 | 291 | 12.9 | 17.7 | 0.05 | 0.53 | 0.00 | 95 | 1022.8 |
| 20260906061547 | 11 | 303 | 14.5 | 20.9 | 0.13 | 0.53 | 0.00 | 95 | 1022.4 |
| 20260906060039 | 11 | 301 | 11.3 | 17.7 | 0.13 | 0.53 | 0.00 | 94 | 1022.4 |
| 20260906054542 | 12 | 309 | 11.3 | 14.5 | 0.13 | 0.53 | 0.53 | 94 | 1022.5 |
| 20260906053036 | 12 | 311 | 12.9 | 29.0 | 0.08 | 0.48 | 0.48 | 92 | 1021.9 |
| 20260906051538 | 11 | 276 | 6.4 | 12.9 | 0.03 | 0.41 | 0.41 | 93 | 1023.6 |
| 20260906050035 | 11 | 293 | 6.4 | 9.7 | 0.20 | 0.41 | 0.41 | 92 | 1022.2 |
| 20260906044535 | 11 | 314 | 8.0 | 12.9 | 0.20 | 0.41 | 0.41 | 91 | 1021.9 |
| 20260906043035 | 12 | 291 | 6.4 | 14.5 | 0.20 | 0.41 | 0.41 | 91 | 1022.0 |
| 20260906041535 | 12 | 320 | 20.9 | 29.0 | 0.18 | 0.38 | 0.38 | 89 | 1020.6 |
| 20260906040035 | 12 | 248 | 1.6 | 11.3 | 0.00 | 0.20 | 0.20 | 86 | 1023.7 |
| 20260906034550 | 12 | 268 | 3.2 | 11.3 | 0.00 | 0.20 | 0.20 | 85 | 1022.6 |
| 20260906033032 | 11 | 315 | 6.4 | 11.3 | 0.00 | 0.20 | 0.20 | 87 | 1022.0 |
| 20260906031529 | 11 | 293 | 4.8 | 11.3 | 0.00 | 0.20 | 0.20 | 86 | 1021.7 |
| 20260906030024 | 11 | 304 | 6.4 | 9.7 | 0.00 | 0.20 | 0.20 | 87 | 1021.5 |
| 20260906024522 | 11 | 303 | 6.4 | 9.7 | 0.00 | 0.20 | 0.20 | 85 | 1021.2 |
| 20260906023028 | 12 | 302 | 4.8 | 9.7 | 0.00 | 0.20 | 0.20 | 80 | 1021.2 |
| 20260906021522 | 13 | 314 | 3.2 | 11.3 | 0.00 | 0.20 | 0.20 | 79 | 1021.0 |
| 20260906020020 | 14 | 309 | 6.4 | 11.3 | 0.00 | 0.20 | 0.20 | 76 | 1021.2 |
| 20260906014520 | 15 | 323 | 6.4 | 12.9 | 0.00 | 0.20 | 0.20 | 73 | 1020.9 |
| 20260906013020 | 15 | 331 | 8.0 | 17.7 | 0.00 | 0.20 | 0.20 | 71 | 1020.7 |
| 20260906011520 | 15 | 316 | 11.3 | 19.3 | 0.00 | 0.20 | 0.20 | 71 | 1020.8 |
| 20260906010019 | 16 | 330 | 11.3 | 24.1 | 0.00 | 0.20 | 0.20 | 68 | 1020.7 |
| 20260906004518 | 16 | 304 | 16.1 | 25.7 | 0.00 | 0.20 | 0.20 | 70 | 1020.9 |
| 20260906003017 | 16 | 305 | 14.5 | 25.7 | 0.00 | 0.20 | 0.20 | 68 | 1020.9 |
| 20260906001535 | 17 | 326 | 14.5 | 24.1 | 0.00 | 0.20 | 0.20 | 68 | 1021.0 |
| 20260906000015 | 17 | 319 | 16.1 | 24.1 | 0.00 | 0.20 | 0.20 | 67 | 1021.0 |
| 20260905234514 | 17 | 308 | 14.5 | 20.9 | 0.00 | 0.20 | 0.20 | 67 | 1021.1 |
| 20260905233018 | 17 | 299 | 16.1 | 22.5 | 0.00 | 0.20 | 0.20 | 66 | 1020.9 |
| 20260905231516 | 17 | 304 | 16.1 | 24.1 | 0.00 | 0.20 | 0.20 | 66 | 1020.8 |